Time;durP1;ratioP1;P1;durP2;ratioP2;P2;SDS_P1;SDS_P2;PMS_P1;PMS_P2;Temp;Humidity;BMP_temperature;BMP_pressure;BME280_temperature;BME280_humidity;BME280_pressure;Samples;Min_cycle;Max_cycle;Signal;HPM_P1;HPM_P2
2022/10/20 00:00:35;;;;;;;;;;;15.70;92.80;;;;;;2054854;28;19921;-86
2022/10/20 00:01:35;;;;;;;;;;;15.60;92.80;;;;;;2050879;29;19938;-88
2022/10/20 00:02:36;;;;;;;;;;;15.70;92.80;;;;;;2057827;28;19906;-87
2022/10/20 00:03:37;;;;;;;;;;;15.60;92.90;;;;;;2065178;28;19918;-86
2022/10/20 00:04:38;;;;;;;;;;;15.60;93.00;;;;;;2050511;28;20234;-88
2022/10/20 00:05:39;;;;;;;;;;;15.70;93.10;;;;;;2042016;29;19915;-88
2022/10/20 00:06:39;;;;;;;;;;;15.70;93.00;;;;;;2038229;28;19915;-87
2022/10/20 00:07:40;;;;;;;;;;;15.70;93.00;;;;;;2042852;28;19951;-86
2022/10/20 00:08:41;;;;;;;;;;;15.70;93.10;;;;;;2042533;29;19973;-90
2022/10/20 00:09:42;;;;;;;;;;;15.70;93.20;;;;;;2034983;29;20231;-91
2022/10/20 00:10:51;;;;;;;;;;;15.70;93.10;;;;;;2049788;28;19942;-90
2022/10/20 00:11:51;;;;;;;;;;;15.70;93.20;;;;;;2049923;29;19910;-85
2022/10/20 00:12:52;;;;;;;;;;;15.70;93.10;;;;;;2059643;28;20348;-89
2022/10/20 00:13:54;;;;;;;;;;;15.70;93.30;;;;;;2058166;28;19914;-86
2022/10/20 00:14:54;;;;;;;;;;;15.70;93.60;;;;;;2050749;28;19921;-91
2022/10/20 00:15:56;;;;;;;;;;;15.70;93.30;;;;;;2058170;28;20256;-87
2022/10/20 00:16:58;;;;;;;;;;;15.70;93.30;;;;;;2058585;28;19921;-90
2022/10/20 00:17:59;;;;;;;;;;;15.70;93.10;;;;;;2050519;28;20310;-87
2022/10/20 00:19:00;;;;;;;;;;;15.70;93.10;;;;;;2044416;29;19906;-91
2022/10/20 00:20:00;;;;;;;;;;;15.70;93.20;;;;;;2047021;29;20296;-86
2022/10/20 00:21:06;;;;;;;;;;;15.70;92.90;;;;;;2050158;29;19996;-90
2022/10/20 00:22:07;;;;;;;;;;;15.70;92.90;;;;;;2055040;28;20360;-88
2022/10/20 00:23:07;;;;;;;;;;;15.70;92.90;;;;;;2057637;28;19912;-89
2022/10/20 00:24:08;;;;;;;;;;;15.70;93.20;;;;;;2044837;28;20046;-86
2022/10/20 00:25:09;;;;;;;;;;;15.70;93.10;;;;;;2050167;28;19910;-89
2022/10/20 00:26:10;;;;;;;;;;;15.70;93.10;;;;;;2050583;28;19914;-90
2022/10/20 00:27:11;;;;;;;;;;;15.70;93.00;;;;;;2058305;28;19914;-87
2022/10/20 00:28:12;;;;;;;;;;;15.70;93.00;;;;;;2045635;29;19906;-88
2022/10/20 00:29:13;;;;;;;;;;;15.70;92.90;;;;;;2045028;28;20273;-88
2022/10/20 00:30:13;;;;;;;;;;;15.70;93.00;;;;;;2042119;29;20396;-89
2022/10/20 00:31:14;;;;;;;;;;;15.70;93.00;;;;;;2036762;29;19925;-89
2022/10/20 00:32:15;;;;;;;;;;;15.70;93.00;;;;;;2042197;28;19911;-90
2022/10/20 00:33:16;;;;;;;;;;;15.70;93.10;;;;;;2058400;28;19960;-89
2022/10/20 00:34:16;;;;;;;;;;;15.70;92.90;;;;;;2059180;28;19910;-89
2022/10/20 00:35:17;;;;;;;;;;;15.70;92.90;;;;;;2042738;29;19934;-91
2022/10/20 00:36:19;;;;;;;;;;;15.70;92.90;;;;;;2043220;29;19962;-88
2022/10/20 00:37:20;;;;;;;;;;;15.70;93.00;;;;;;2051046;28;19953;-90
2022/10/20 00:38:20;;;;;;;;;;;15.70;92.90;;;;;;2051059;28;19930;-88
2022/10/20 00:39:21;;;;;;;;;;;15.70;93.10;;;;;;2041570;29;19918;-90
2022/10/20 00:40:22;;;;;;;;;;;15.70;93.00;;;;;;2050547;28;19913;-86
2022/10/20 00:41:23;;;;;;;;;;;15.70;93.00;;;;;;2050011;28;20307;-87
2022/10/20 00:42:24;;;;;;;;;;;15.70;93.10;;;;;;2050620;28;19938;-89
2022/10/20 00:43:41;;;;;;;;;;;15.70;93.10;;;;;;2047155;28;19910;-87
2022/10/20 00:44:50;;;;;;;;;;;15.70;93.30;;;;;;2045853;28;19910;-87
2022/10/20 00:45:53;;;;;;;;;;;15.70;93.00;;;;;;2051162;28;19921;-88
2022/10/20 00:46:55;;;;;;;;;;;15.70;93.00;;;;;;2054490;28;19917;-85
2022/10/20 00:47:58;;;;;;;;;;;15.70;92.90;;;;;;2051695;28;19910;-88
2022/10/20 00:49:01;;;;;;;;;;;15.70;93.00;;;;;;2045518;29;19911;-87
2022/10/20 00:50:07;;;;;;;;;;;15.70;93.10;;;;;;2052271;28;19925;-88
2022/10/20 00:51:08;;;;;;;;;;;15.70;93.30;;;;;;2044697;29;20341;-90
2022/10/20 00:52:09;;;;;;;;;;;15.70;93.20;;;;;;2043581;28;19922;-87
2022/10/20 00:53:10;;;;;;;;;;;15.70;93.40;;;;;;2051631;28;19951;-86
2022/10/20 00:54:16;;;;;;;;;;;15.70;93.20;;;;;;2061590;28;19912;-88
2022/10/20 00:55:22;;;;;;;;;;;15.70;93.10;;;;;;2044566;29;19942;-89
2022/10/20 00:56:23;;;;;;;;;;;15.70;93.30;;;;;;2052499;28;19911;-87
2022/10/20 00:57:24;;;;;;;;;;;15.80;93.20;;;;;;2060141;28;19917;-88
2022/10/20 00:58:25;;;;;;;;;;;15.80;93.20;;;;;;2051328;29;19914;-88
2022/10/20 00:59:28;;;;;;;;;;;15.70;93.10;;;;;;2043664;29;20360;-89
2022/10/20 01:00:29;;;;;;;;;;;15.70;93.10;;;;;;2040190;29;19958;-87
2022/10/20 01:01:30;;;;;;;;;;;15.70;93.10;;;;;;2047645;29;19914;-88
2022/10/20 01:02:31;;;;;;;;;;;15.70;93.00;;;;;;2042428;29;19911;-89
2022/10/20 01:03:44;;;;;;;;;;;15.70;92.90;;;;;;2041068;29;19910;-89
2022/10/20 01:04:45;;;;;;;;;;;15.70;93.10;;;;;;2044914;28;21579;-87
2022/10/20 01:05:46;;;;;;;;;;;15.70;93.00;;;;;;2040089;29;19966;-89
2022/10/20 01:06:47;;;;;;;;;;;15.80;93.10;;;;;;2043182;29;20334;-88
2022/10/20 01:07:47;;;;;;;;;;;15.70;93.20;;;;;;2043971;29;19920;-90
2022/10/20 01:08:52;;;;;;;;;;;15.70;93.40;;;;;;2038149;29;19922;-90
2022/10/20 01:09:53;;;;;;;;;;;15.70;93.20;;;;;;2051845;29;19937;-87
2022/10/20 01:10:56;;;;;;;;;;;15.70;93.30;;;;;;2044638;28;19923;-86
2022/10/20 01:12:15;;;;;;;;;;;15.70;93.30;;;;;;2043630;29;19911;-88
2022/10/20 01:13:15;;;;;;;;;;;15.70;93.20;;;;;;2032245;29;20355;-86
2022/10/20 01:14:29;;;;;;;;;;;15.80;93.30;;;;;;2053062;28;19910;-88
2022/10/20 01:15:37;;;;;;;;;;;15.70;93.30;;;;;;2059594;28;20248;-88
2022/10/20 01:16:47;;;;;;;;;;;15.80;93.50;;;;;;2052460;28;19910;-91
2022/10/20 01:17:52;;;;;;;;;;;15.80;93.60;;;;;;2059132;28;19906;-90
2022/10/20 01:20:43;;;;;;;;;;;15.80;93.40;;;;;;2055336;28;19910;-89
2022/10/20 01:21:50;;;;;;;;;;;15.80;93.40;;;;;;2053064;28;19910;-86
2022/10/20 01:22:53;;;;;;;;;;;15.80;93.30;;;;;;2053854;28;20301;-89
2022/10/20 01:24:32;;;;;;;;;;;15.80;93.40;;;;;;2051414;29;19910;-87
2022/10/20 01:25:51;;;;;;;;;;;15.80;93.40;;;;;;2034835;29;19950;-89
2022/10/20 01:27:10;;;;;;;;;;;15.80;93.30;;;;;;2023633;29;19966;-87
2022/10/20 01:28:14;;;;;;;;;;;15.80;93.20;;;;;;2030440;29;19908;-86
2022/10/20 01:31:00;;;;;;;;;;;15.80;93.20;;;;;;2046677;28;19911;-86
2022/10/20 01:32:07;;;;;;;;;;;15.80;93.40;;;;;;2059158;28;19956;-89
2022/10/20 01:33:08;;;;;;;;;;;15.80;93.30;;;;;;2051578;28;19920;-87
2022/10/20 01:34:09;;;;;;;;;;;15.80;93.50;;;;;;2035871;29;19911;-88
2022/10/20 01:35:19;;;;;;;;;;;15.80;93.20;;;;;;2045428;29;19958;-89
2022/10/20 01:36:38;;;;;;;;;;;15.80;93.20;;;;;;2059944;28;19954;-90
2022/10/20 01:37:43;;;;;;;;;;;15.80;93.10;;;;;;2046239;29;19967;-88
2022/10/20 01:38:51;;;;;;;;;;;15.80;93.30;;;;;;2044070;28;19948;-86
2022/10/20 01:39:53;;;;;;;;;;;15.80;93.30;;;;;;2053399;28;20079;-91
2022/10/20 01:41:13;;;;;;;;;;;15.80;93.30;;;;;;2053279;28;19921;-90
2022/10/20 01:42:17;;;;;;;;;;;15.80;93.30;;;;;;2054102;28;19958;-89
2022/10/20 01:43:20;;;;;;;;;;;15.80;93.40;;;;;;2059325;28;19905;-88
2022/10/20 01:44:23;;;;;;;;;;;15.80;93.40;;;;;;2051531;29;20005;-85
2022/10/20 01:45:26;;;;;;;;;;;15.80;93.40;;;;;;2036115;29;19914;-87
2022/10/20 01:46:27;;;;;;;;;;;15.70;93.20;;;;;;2052743;28;19915;-86
2022/10/20 01:47:29;;;;;;;;;;;15.80;93.10;;;;;;2051575;28;19911;-89
2022/10/20 01:48:32;;;;;;;;;;;15.80;93.30;;;;;;2055543;28;19906;-91
2022/10/20 01:49:33;;;;;;;;;;;15.70;93.30;;;;;;2044119;29;19911;-88
2022/10/20 01:50:34;;;;;;;;;;;15.80;93.30;;;;;;2043575;29;19923;-85
2022/10/20 01:51:35;;;;;;;;;;;15.80;93.10;;;;;;2051653;28;19922;-86
2022/10/20 01:52:36;;;;;;;;;;;15.80;93.50;;;;;;2058858;28;19913;-87
2022/10/20 01:53:36;;;;;;;;;;;15.80;93.30;;;;;;2043744;29;19917;-89
2022/10/20 01:54:37;;;;;;;;;;;15.80;93.50;;;;;;2027859;29;20220;-87
2022/10/20 01:55:38;;;;;;;;;;;15.80;93.20;;;;;;2042252;29;19946;-89
2022/10/20 01:56:48;;;;;;;;;;;15.80;93.20;;;;;;2050957;28;19911;-87
2022/10/20 01:58:00;;;;;;;;;;;15.80;93.10;;;;;;2063622;28;19920;-90
2022/10/20 01:59:04;;;;;;;;;;;15.80;93.20;;;;;;2049724;28;19910;-90
2022/10/20 02:00:04;;;;;;;;;;;15.80;93.40;;;;;;2051270;28;19910;-91
2022/10/20 02:01:17;;;;;;;;;;;15.80;93.50;;;;;;2059137;28;19909;-88
2022/10/20 02:02:29;;;;;;;;;;;15.80;93.50;;;;;;2048210;29;19993;-87
2022/10/20 02:03:39;;;;;;;;;;;15.80;93.80;;;;;;2054310;28;19906;-89
2022/10/20 02:04:54;;;;;;;;;;;15.80;93.70;;;;;;2050002;28;20424;-88
2022/10/20 02:05:58;;;;;;;;;;;15.80;93.60;;;;;;2053769;28;19961;-88
2022/10/20 02:07:06;;;;;;;;;;;15.80;93.50;;;;;;2051100;29;20333;-88
2022/10/20 02:08:12;;;;;;;;;;;15.80;93.70;;;;;;2052033;28;19918;-86
2022/10/20 02:09:18;;;;;;;;;;;15.80;93.80;;;;;;2059279;28;19953;-88
2022/10/20 02:10:22;;;;;;;;;;;15.80;93.80;;;;;;2051956;28;19910;-91
2022/10/20 02:11:42;;;;;;;;;;;15.80;93.70;;;;;;2059485;28;19985;-86
2022/10/20 02:12:46;;;;;;;;;;;15.80;94.00;;;;;;2041816;28;19957;-91
2022/10/20 02:13:47;;;;;;;;;;;15.80;94.00;;;;;;2044750;29;20356;-90
2022/10/20 02:14:48;;;;;;;;;;;15.90;93.80;;;;;;2043953;29;20389;-87
2022/10/20 02:15:51;;;;;;;;;;;15.90;94.00;;;;;;2047870;29;19937;-89
2022/10/20 02:16:56;;;;;;;;;;;15.90;93.90;;;;;;2051533;28;19906;-88
2022/10/20 02:18:03;;;;;;;;;;;15.80;94.00;;;;;;2055294;28;20005;-86
2022/10/20 02:19:06;;;;;;;;;;;15.90;93.90;;;;;;2051446;28;19918;-91
2022/10/20 02:20:08;;;;;;;;;;;15.90;93.80;;;;;;2051173;28;19920;-88
2022/10/20 02:21:09;;;;;;;;;;;15.80;94.10;;;;;;2051348;29;19910;-87
2022/10/20 02:22:10;;;;;;;;;;;15.90;94.00;;;;;;2043507;28;19906;-89
2022/10/20 02:23:11;;;;;;;;;;;15.90;94.10;;;;;;2051181;28;19906;-90
2022/10/20 02:24:12;;;;;;;;;;;15.90;94.00;;;;;;2059067;28;19910;-89
2022/10/20 02:25:13;;;;;;;;;;;15.90;93.90;;;;;;2058634;28;20351;-87
2022/10/20 02:26:15;;;;;;;;;;;15.90;93.90;;;;;;2065323;28;19913;-87
2022/10/20 02:27:22;;;;;;;;;;;15.90;94.00;;;;;;2067264;28;19910;-87
2022/10/20 02:28:24;;;;;;;;;;;15.90;93.90;;;;;;2058997;28;19910;-90
2022/10/20 02:29:27;;;;;;;;;;;15.90;94.00;;;;;;2051317;28;19922;-86
2022/10/20 02:30:28;;;;;;;;;;;15.90;93.80;;;;;;2059031;28;20005;-88
2022/10/20 02:31:30;;;;;;;;;;;15.90;93.80;;;;;;2058240;28;19906;-90
2022/10/20 02:32:31;;;;;;;;;;;15.90;93.70;;;;;;2051082;28;19960;-89
2022/10/20 02:33:32;;;;;;;;;;;15.90;94.00;;;;;;2051335;28;20261;-89
2022/10/20 02:34:33;;;;;;;;;;;15.90;94.10;;;;;;2053859;28;19917;-88
2022/10/20 02:35:34;;;;;;;;;;;15.90;94.20;;;;;;2051186;29;19921;-90
2022/10/20 02:36:37;;;;;;;;;;;15.90;94.00;;;;;;2059241;28;19913;-88
2022/10/20 02:37:38;;;;;;;;;;;15.90;94.00;;;;;;2051202;29;19918;-85
2022/10/20 02:38:38;;;;;;;;;;;15.90;94.20;;;;;;2042613;29;19910;-88
2022/10/20 02:39:39;;;;;;;;;;;15.90;94.10;;;;;;2054907;28;19914;-89
2022/10/20 02:40:40;;;;;;;;;;;15.90;93.90;;;;;;2058694;28;19926;-87
2022/10/20 02:41:40;;;;;;;;;;;15.90;94.00;;;;;;2048381;29;19914;-88
2022/10/20 02:42:42;;;;;;;;;;;15.90;94.00;;;;;;2045586;28;19962;-89
2022/10/20 02:43:42;;;;;;;;;;;15.90;94.10;;;;;;2058909;28;20347;-86
2022/10/20 02:44:43;;;;;;;;;;;15.90;94.20;;;;;;2055453;28;19905;-91
2022/10/20 02:45:44;;;;;;;;;;;15.90;93.90;;;;;;2050377;28;19910;-87
2022/10/20 02:46:44;;;;;;;;;;;15.90;94.10;;;;;;2051148;29;19965;-89
2022/10/20 02:47:45;;;;;;;;;;;15.90;94.00;;;;;;2052334;28;20256;-89
2022/10/20 02:48:46;;;;;;;;;;;15.90;94.20;;;;;;2059189;28;19921;-87
2022/10/20 02:49:47;;;;;;;;;;;15.90;94.20;;;;;;2050878;29;19906;-87
2022/10/20 02:50:48;;;;;;;;;;;15.90;94.30;;;;;;2056235;28;19917;-87
2022/10/20 02:51:49;;;;;;;;;;;15.90;94.40;;;;;;2066375;28;19913;-86
2022/10/20 02:52:50;;;;;;;;;;;15.90;94.30;;;;;;2063892;28;20388;-89
2022/10/20 02:53:50;;;;;;;;;;;15.90;94.10;;;;;;2061132;28;20258;-87
2022/10/20 02:54:51;;;;;;;;;;;15.90;94.00;;;;;;2066744;28;20241;-89
2022/10/20 02:55:52;;;;;;;;;;;15.90;94.10;;;;;;2066972;28;19917;-88
2022/10/20 02:56:56;;;;;;;;;;;15.90;94.10;;;;;;2047630;28;19960;-87
2022/10/20 02:57:56;;;;;;;;;;;15.90;94.10;;;;;;2049937;28;19917;-87
2022/10/20 02:58:57;;;;;;;;;;;15.90;94.10;;;;;;2049844;28;19910;-86
2022/10/20 02:59:58;;;;;;;;;;;15.90;94.00;;;;;;2042988;29;19958;-89
2022/10/20 03:00:59;;;;;;;;;;;15.90;94.20;;;;;;2050936;28;20321;-88
2022/10/20 03:01:59;;;;;;;;;;;15.90;94.00;;;;;;2051455;28;19910;-87
2022/10/20 03:03:00;;;;;;;;;;;15.90;94.10;;;;;;2056631;28;19906;-90
2022/10/20 03:04:01;;;;;;;;;;;15.90;94.10;;;;;;2050902;28;19921;-85
2022/10/20 03:05:02;;;;;;;;;;;15.90;94.10;;;;;;2041313;29;19947;-87
2022/10/20 03:06:06;;;;;;;;;;;15.90;94.10;;;;;;2045553;28;19926;-88
2022/10/20 03:07:07;;;;;;;;;;;15.90;94.20;;;;;;2058843;28;19909;-87
2022/10/20 03:08:07;;;;;;;;;;;15.90;94.10;;;;;;2064766;28;19906;-90
2022/10/20 03:09:08;;;;;;;;;;;15.90;94.10;;;;;;2043370;29;19934;-88
2022/10/20 03:10:09;;;;;;;;;;;15.90;94.40;;;;;;2050718;28;20250;-89
2022/10/20 03:11:09;;;;;;;;;;;15.90;94.10;;;;;;2053793;28;20412;-90
2022/10/20 03:12:10;;;;;;;;;;;15.90;94.10;;;;;;2050693;28;19911;-88
2022/10/20 03:13:13;;;;;;;;;;;15.90;94.00;;;;;;2050867;29;19946;-90
2022/10/20 03:14:13;;;;;;;;;;;15.90;93.90;;;;;;2035798;29;19907;-91
2022/10/20 03:15:14;;;;;;;;;;;15.90;93.80;;;;;;2059067;28;19958;-88
2022/10/20 03:16:15;;;;;;;;;;;15.90;93.90;;;;;;2048893;29;19922;-87
2022/10/20 03:17:15;;;;;;;;;;;15.90;94.10;;;;;;2054242;28;19929;-88
2022/10/20 03:18:16;;;;;;;;;;;15.90;94.00;;;;;;2053964;28;20300;-88
2022/10/20 03:19:17;;;;;;;;;;;15.90;93.90;;;;;;2042644;29;19934;-87
2022/10/20 03:20:17;;;;;;;;;;;15.90;93.90;;;;;;2055304;28;20337;-88
2022/10/20 03:21:18;;;;;;;;;;;15.90;93.90;;;;;;2043171;29;19910;-87
2022/10/20 03:22:19;;;;;;;;;;;15.90;93.80;;;;;;2050968;29;19911;-86
2022/10/20 03:23:20;;;;;;;;;;;15.90;93.90;;;;;;2064044;28;20265;-90
2022/10/20 03:24:21;;;;;;;;;;;15.90;93.90;;;;;;2050880;28;19906;-87
2022/10/20 03:25:21;;;;;;;;;;;15.90;93.90;;;;;;2042124;29;20374;-83
2022/10/20 03:26:25;;;;;;;;;;;15.90;93.90;;;;;;2046277;28;19969;-88
2022/10/20 03:27:26;;;;;;;;;;;15.90;93.90;;;;;;2051248;28;20319;-88
2022/10/20 03:28:27;;;;;;;;;;;15.90;93.80;;;;;;2050700;29;19910;-87
2022/10/20 03:29:27;;;;;;;;;;;15.90;93.80;;;;;;2050272;29;19952;-87
2022/10/20 03:30:28;;;;;;;;;;;15.90;93.70;;;;;;2043132;29;19911;-89
2022/10/20 03:31:29;;;;;;;;;;;15.90;93.70;;;;;;2049310;29;19917;-87
2022/10/20 03:32:29;;;;;;;;;;;15.90;93.60;;;;;;2049709;28;19969;-88
2022/10/20 03:33:30;;;;;;;;;;;15.90;93.50;;;;;;2050798;29;19926;-89
2022/10/20 03:34:31;;;;;;;;;;;15.90;93.60;;;;;;2058642;28;19975;-86
2022/10/20 03:35:31;;;;;;;;;;;15.90;93.60;;;;;;2050449;28;19914;-85
2022/10/20 03:36:32;;;;;;;;;;;15.90;93.60;;;;;;2059384;28;19910;-89
2022/10/20 03:37:33;;;;;;;;;;;15.90;93.50;;;;;;2051167;28;19936;-88
2022/10/20 03:38:34;;;;;;;;;;;15.90;93.60;;;;;;2050104;28;19910;-87
2022/10/20 03:39:34;;;;;;;;;;;15.90;93.60;;;;;;2061305;28;19961;-90
2022/10/20 03:40:36;;;;;;;;;;;15.90;93.60;;;;;;2058932;28;20355;-86
2022/10/20 03:41:37;;;;;;;;;;;15.90;93.70;;;;;;2037267;29;19906;-89
2022/10/20 03:42:38;;;;;;;;;;;15.90;93.70;;;;;;2042857;29;19934;-89
2022/10/20 03:43:39;;;;;;;;;;;15.90;93.50;;;;;;2058936;28;19942;-88
2022/10/20 03:44:39;;;;;;;;;;;15.90;93.50;;;;;;2058404;28;19910;-85
2022/10/20 03:45:43;;;;;;;;;;;15.90;93.50;;;;;;2050220;28;19911;-89
2022/10/20 03:46:43;;;;;;;;;;;15.90;93.50;;;;;;2051108;28;19910;-90
2022/10/20 03:47:44;;;;;;;;;;;15.90;93.50;;;;;;2056013;28;19906;-88
2022/10/20 03:48:45;;;;;;;;;;;15.90;93.50;;;;;;2045237;28;19918;-89
2022/10/20 03:49:45;;;;;;;;;;;15.90;93.50;;;;;;2050387;29;19917;-89
2022/10/20 03:50:46;;;;;;;;;;;15.90;93.50;;;;;;2040149;29;19911;-86
2022/10/20 03:51:47;;;;;;;;;;;15.80;93.40;;;;;;2049834;28;19910;-87
2022/10/20 03:52:48;;;;;;;;;;;15.80;93.40;;;;;;2050764;29;19969;-85
2022/10/20 03:53:49;;;;;;;;;;;15.90;93.60;;;;;;2050264;29;20396;-88
2022/10/20 03:54:49;;;;;;;;;;;15.90;93.50;;;;;;2050483;29;19918;-86
2022/10/20 03:55:50;;;;;;;;;;;15.90;93.50;;;;;;2052719;28;20436;-90
2022/10/20 03:56:51;;;;;;;;;;;15.90;93.40;;;;;;2041152;29;19997;-87
2022/10/20 03:57:51;;;;;;;;;;;15.80;93.50;;;;;;2042627;29;19910;-86
2022/10/20 03:58:52;;;;;;;;;;;15.90;93.50;;;;;;2049642;29;19906;-88
2022/10/20 03:59:53;;;;;;;;;;;15.80;93.50;;;;;;2058112;28;19925;-87
2022/10/20 04:00:53;;;;;;;;;;;15.80;93.50;;;;;;2054766;28;19910;-88
2022/10/20 04:01:54;;;;;;;;;;;15.80;93.50;;;;;;2049962;29;19911;-88
2022/10/20 04:02:55;;;;;;;;;;;15.90;93.50;;;;;;2050280;29;20104;-89
2022/10/20 04:03:55;;;;;;;;;;;15.80;93.40;;;;;;2051097;28;20016;-87
2022/10/20 04:04:56;;;;;;;;;;;15.80;93.40;;;;;;2050126;29;19910;-88
2022/10/20 04:05:57;;;;;;;;;;;15.80;93.40;;;;;;2037925;29;20263;-90
2022/10/20 04:06:58;;;;;;;;;;;15.90;93.30;;;;;;2051653;28;19910;-90
2022/10/20 04:07:58;;;;;;;;;;;15.80;93.30;;;;;;2050386;28;19932;-87
2022/10/20 04:08:59;;;;;;;;;;;15.80;93.30;;;;;;2049655;29;19930;-88
2022/10/20 04:10:03;;;;;;;;;;;15.80;93.40;;;;;;2042517;29;20344;-89
2022/10/20 04:11:03;;;;;;;;;;;15.80;93.50;;;;;;2050400;29;19946;-89
2022/10/20 04:12:04;;;;;;;;;;;15.80;93.50;;;;;;2045205;29;19978;-85
2022/10/20 04:13:05;;;;;;;;;;;15.80;93.50;;;;;;2050584;29;19953;-90
2022/10/20 04:14:05;;;;;;;;;;;15.80;93.40;;;;;;2050204;29;20053;-86
2022/10/20 04:15:07;;;;;;;;;;;15.80;93.40;;;;;;2048841;29;19961;-87
2022/10/20 04:16:07;;;;;;;;;;;15.80;93.40;;;;;;2050326;28;20323;-87
2022/10/20 04:17:08;;;;;;;;;;;15.80;93.30;;;;;;2058480;28;19906;-87
2022/10/20 04:18:09;;;;;;;;;;;15.80;93.30;;;;;;2050627;28;19911;-87
2022/10/20 04:19:09;;;;;;;;;;;15.80;93.30;;;;;;2036430;28;19911;-89
2022/10/20 04:20:10;;;;;;;;;;;15.80;93.20;;;;;;2030887;29;19911;-88
2022/10/20 04:21:11;;;;;;;;;;;15.80;93.20;;;;;;2034917;29;19911;-90
2022/10/20 04:22:12;;;;;;;;;;;15.80;93.20;;;;;;2034520;29;20006;-89
2022/10/20 04:23:12;;;;;;;;;;;15.80;93.20;;;;;;2051656;29;19914;-89
2022/10/20 04:24:13;;;;;;;;;;;15.80;93.20;;;;;;2043966;29;19921;-87
2022/10/20 04:25:14;;;;;;;;;;;15.80;93.20;;;;;;2044359;29;20338;-88
2022/10/20 04:26:15;;;;;;;;;;;15.80;93.20;;;;;;2059991;28;19914;-87
2022/10/20 04:27:16;;;;;;;;;;;15.80;93.10;;;;;;2059922;28;19986;-86
2022/10/20 04:28:17;;;;;;;;;;;15.80;93.20;;;;;;2045400;29;20320;-87
2022/10/20 04:29:18;;;;;;;;;;;15.70;93.10;;;;;;2042470;29;19923;-89
2022/10/20 04:30:19;;;;;;;;;;;15.80;93.20;;;;;;2039424;29;20392;-87
2022/10/20 04:31:19;;;;;;;;;;;15.80;93.20;;;;;;2043865;29;19970;-90
2022/10/20 04:32:20;;;;;;;;;;;15.80;93.20;;;;;;2043381;29;19953;-88
2022/10/20 04:33:21;;;;;;;;;;;15.70;93.10;;;;;;2052138;28;19929;-90
2022/10/20 04:34:21;;;;;;;;;;;15.80;93.20;;;;;;2059958;28;19918;-86
2022/10/20 04:35:22;;;;;;;;;;;15.80;93.20;;;;;;2051930;29;19910;-90
2022/10/20 04:36:23;;;;;;;;;;;15.80;93.20;;;;;;2057925;28;20032;-89
2022/10/20 04:37:23;;;;;;;;;;;15.80;93.10;;;;;;2044135;29;19938;-86
2022/10/20 04:38:24;;;;;;;;;;;15.80;93.10;;;;;;2058609;28;19992;-89
2022/10/20 04:39:25;;;;;;;;;;;15.80;93.10;;;;;;2059789;28;19913;-87
2022/10/20 04:40:25;;;;;;;;;;;15.80;93.10;;;;;;2059714;28;19910;-91
2022/10/20 04:41:27;;;;;;;;;;;15.80;93.10;;;;;;2051887;28;19907;-85
2022/10/20 04:42:27;;;;;;;;;;;15.80;93.10;;;;;;2059637;28;19933;-91
2022/10/20 04:43:28;;;;;;;;;;;15.80;93.10;;;;;;2058927;28;20360;-89
2022/10/20 04:44:29;;;;;;;;;;;15.70;93.00;;;;;;2043650;29;19907;-87
2022/10/20 04:45:29;;;;;;;;;;;15.70;93.00;;;;;;2035365;29;19913;-87
2022/10/20 04:46:30;;;;;;;;;;;15.70;93.00;;;;;;2059737;28;19968;-88
2022/10/20 04:47:32;;;;;;;;;;;15.70;93.00;;;;;;2058119;28;19906;-90
2022/10/20 04:48:32;;;;;;;;;;;15.70;93.10;;;;;;2044066;29;20386;-90
2022/10/20 04:49:33;;;;;;;;;;;15.70;93.10;;;;;;2053315;28;19914;-88
2022/10/20 04:50:33;;;;;;;;;;;15.70;93.10;;;;;;2058551;28;19949;-85
2022/10/20 04:51:40;;;;;;;;;;;15.70;93.10;;;;;;2044179;29;19918;-91
2022/10/20 04:52:41;;;;;;;;;;;15.70;93.10;;;;;;2052709;28;19945;-88
2022/10/20 04:53:41;;;;;;;;;;;15.70;93.10;;;;;;2055945;28;19910;-87
2022/10/20 04:54:42;;;;;;;;;;;15.70;93.10;;;;;;2059979;28;19993;-85
2022/10/20 04:55:43;;;;;;;;;;;15.70;93.00;;;;;;2053852;28;19910;-87
2022/10/20 04:56:43;;;;;;;;;;;15.70;93.10;;;;;;2059661;28;19930;-87
2022/10/20 04:57:44;;;;;;;;;;;15.70;93.00;;;;;;2068064;28;19910;-86
2022/10/20 04:58:48;;;;;;;;;;;15.70;93.10;;;;;;2055233;28;20004;-88
2022/10/20 04:59:49;;;;;;;;;;;15.70;93.00;;;;;;2052024;28;20353;-90
2022/10/20 05:00:50;;;;;;;;;;;15.70;93.10;;;;;;2054707;28;19910;-89
2022/10/20 05:01:50;;;;;;;;;;;15.70;93.10;;;;;;2061634;28;19909;-88
2022/10/20 05:02:51;;;;;;;;;;;15.70;93.00;;;;;;2059817;28;19906;-88
2022/10/20 05:03:52;;;;;;;;;;;15.70;93.00;;;;;;2052720;28;19957;-89
2022/10/20 05:04:52;;;;;;;;;;;15.70;93.00;;;;;;2045336;29;19918;-90
2022/10/20 05:05:53;;;;;;;;;;;15.70;93.10;;;;;;2043319;29;19922;-91
2022/10/20 05:06:54;;;;;;;;;;;15.70;93.10;;;;;;2059908;28;19957;-88
2022/10/20 05:07:55;;;;;;;;;;;15.70;93.10;;;;;;2056554;28;19910;-89
2022/10/20 05:08:57;;;;;;;;;;;15.70;93.10;;;;;;2044888;29;19911;-86
2022/10/20 05:09:57;;;;;;;;;;;15.70;93.10;;;;;;2051695;29;20006;-88
2022/10/20 05:10:59;;;;;;;;;;;15.70;93.00;;;;;;2051777;28;20012;-86
2022/10/20 05:12:00;;;;;;;;;;;15.70;93.00;;;;;;2050620;29;19956;-88
2022/10/20 05:13:01;;;;;;;;;;;15.70;93.00;;;;;;2035848;29;20266;-87
2022/10/20 05:14:01;;;;;;;;;;;15.70;93.00;;;;;;2043646;29;19950;-90
2022/10/20 05:15:02;;;;;;;;;;;15.70;93.00;;;;;;2037069;29;20327;-88
2022/10/20 05:16:04;;;;;;;;;;;15.60;93.00;;;;;;2051462;29;19921;-87
2022/10/20 05:17:04;;;;;;;;;;;15.70;93.00;;;;;;2057347;28;19906;-89
2022/10/20 05:18:05;;;;;;;;;;;15.70;93.00;;;;;;2059910;28;19910;-88
2022/10/20 05:19:06;;;;;;;;;;;15.70;93.00;;;;;;2058899;28;19968;-87
2022/10/20 05:20:07;;;;;;;;;;;15.70;92.90;;;;;;2051533;28;19964;-90
2022/10/20 05:21:12;;;;;;;;;;;15.60;93.00;;;;;;2059701;28;19906;-89
2022/10/20 05:22:12;;;;;;;;;;;15.60;93.10;;;;;;2067030;28;19913;-88
2022/10/20 05:23:13;;;;;;;;;;;15.60;93.00;;;;;;2051712;29;19906;-86
2022/10/20 05:24:15;;;;;;;;;;;15.70;93.00;;;;;;2059227;28;19906;-88
2022/10/20 05:25:16;;;;;;;;;;;15.60;93.00;;;;;;2051026;28;20001;-89
2022/10/20 05:26:17;;;;;;;;;;;15.60;92.90;;;;;;2051889;28;19906;-88
2022/10/20 05:27:18;;;;;;;;;;;15.60;93.00;;;;;;2048025;28;19948;-86
2022/10/20 05:28:18;;;;;;;;;;;15.60;93.00;;;;;;2049158;29;20241;-89
2022/10/20 05:29:19;;;;;;;;;;;15.60;93.00;;;;;;2050370;29;19962;-90
2022/10/20 05:30:20;;;;;;;;;;;15.60;93.00;;;;;;2045973;29;20293;-87
2022/10/20 05:31:21;;;;;;;;;;;15.60;93.00;;;;;;2051748;28;19920;-86
2022/10/20 05:32:22;;;;;;;;;;;15.60;93.00;;;;;;2051233;28;20328;-85
2022/10/20 05:33:23;;;;;;;;;;;15.60;92.90;;;;;;2043638;29;19910;-86
2022/10/20 05:34:23;;;;;;;;;;;15.60;92.90;;;;;;2054277;28;19960;-90
2022/10/20 05:35:24;;;;;;;;;;;15.60;93.00;;;;;;2059771;28;19906;-89
2022/10/20 05:36:25;;;;;;;;;;;15.60;93.00;;;;;;2049668;28;19942;-88
2022/10/20 05:37:26;;;;;;;;;;;15.60;93.00;;;;;;2051726;28;19906;-88
2022/10/20 05:38:27;;;;;;;;;;;15.60;93.00;;;;;;2049816;29;19925;-87
2022/10/20 05:39:27;;;;;;;;;;;15.60;92.90;;;;;;2050355;28;19910;-89
2022/10/20 05:40:28;;;;;;;;;;;15.60;93.00;;;;;;2051725;28;20357;-88
2022/10/20 05:41:30;;;;;;;;;;;15.60;93.00;;;;;;2043501;29;19985;-91
2022/10/20 05:42:31;;;;;;;;;;;15.60;93.00;;;;;;2051644;28;20305;-90
2022/10/20 05:43:31;;;;;;;;;;;15.50;93.00;;;;;;2048273;28;19928;-87
2022/10/20 05:44:32;;;;;;;;;;;15.60;93.00;;;;;;2051238;29;20235;-87
2022/10/20 05:45:33;;;;;;;;;;;15.60;93.10;;;;;;2050391;28;19922;-88
2022/10/20 05:46:36;;;;;;;;;;;15.60;93.00;;;;;;2050974;28;19910;-87
2022/10/20 05:47:37;;;;;;;;;;;15.60;93.10;;;;;;2061187;28;19953;-88
2022/10/20 05:48:38;;;;;;;;;;;15.60;93.10;;;;;;2057427;28;19976;-86
2022/10/20 05:49:38;;;;;;;;;;;15.60;93.10;;;;;;2046850;29;19911;-88
2022/10/20 05:50:39;;;;;;;;;;;15.60;93.10;;;;;;2059414;28;19925;-86
2022/10/20 05:51:40;;;;;;;;;;;15.60;93.00;;;;;;2058690;28;19917;-87
2022/10/20 05:52:40;;;;;;;;;;;15.60;93.10;;;;;;2051586;28;20016;-87
2022/10/20 05:53:42;;;;;;;;;;;15.60;93.00;;;;;;2057929;28;19917;-88
2022/10/20 05:54:42;;;;;;;;;;;15.60;93.10;;;;;;2051422;28;19914;-88
2022/10/20 05:55:43;;;;;;;;;;;15.60;93.00;;;;;;2046591;28;20329;-89
2022/10/20 05:56:44;;;;;;;;;;;15.60;93.00;;;;;;2047692;29;19910;-88
2022/10/20 05:57:47;;;;;;;;;;;15.60;93.10;;;;;;2051368;28;20073;-89
2022/10/20 05:58:48;;;;;;;;;;;15.50;93.10;;;;;;2058214;28;19906;-87
2022/10/20 05:59:49;;;;;;;;;;;15.50;93.00;;;;;;2057360;28;19910;-90
2022/10/20 06:00:52;;;;;;;;;;;15.50;93.00;;;;;;2051328;29;20389;-89
2022/10/20 06:01:53;;;;;;;;;;;15.50;93.00;;;;;;2040168;28;19907;-87
2022/10/20 06:02:54;;;;;;;;;;;15.50;93.00;;;;;;2043472;29;19922;-88
2022/10/20 06:03:59;;;;;;;;;;;15.50;92.90;;;;;;2050882;28;20065;-89
2022/10/20 06:04:59;;;;;;;;;;;15.60;93.00;;;;;;2043149;29;19921;-88